sensor_id;sensor_type;location;lat;lon;timestamp;P1;durP1;ratioP1;P2;durP2;ratioP2
21581;SDS011;10952;50.836;4.348;2023-07-28T00:00:35;12.90;;;4.83;;
21581;SDS011;10952;50.836;4.348;2023-07-28T00:03:00;9.10;;;3.87;;
21581;SDS011;10952;50.836;4.348;2023-07-28T00:05:26;6.30;;;4.00;;
21581;SDS011;10952;50.836;4.348;2023-07-28T00:07:51;6.43;;;3.47;;
21581;SDS011;10952;50.836;4.348;2023-07-28T00:10:17;8.57;;;4.47;;
21581;SDS011;10952;50.836;4.348;2023-07-28T00:12:43;6.47;;;3.70;;
21581;SDS011;10952;50.836;4.348;2023-07-28T00:15:08;5.63;;;3.70;;
21581;SDS011;10952;50.836;4.348;2023-07-28T00:17:34;6.43;;;3.60;;
21581;SDS011;10952;50.836;4.348;2023-07-28T00:20:00;6.67;;;3.13;;
21581;SDS011;10952;50.836;4.348;2023-07-28T00:22:26;6.90;;;3.63;;
21581;SDS011;10952;50.836;4.348;2023-07-28T00:24:52;6.13;;;4.03;;
21581;SDS011;10952;50.836;4.348;2023-07-28T00:27:17;6.63;;;4.27;;
21581;SDS011;10952;50.836;4.348;2023-07-28T00:29:43;6.60;;;4.17;;
21581;SDS011;10952;50.836;4.348;2023-07-28T00:32:09;7.77;;;3.87;;
21581;SDS011;10952;50.836;4.348;2023-07-28T00:34:34;7.47;;;3.90;;
21581;SDS011;10952;50.836;4.348;2023-07-28T00:37:00;7.43;;;4.67;;
21581;SDS011;10952;50.836;4.348;2023-07-28T00:39:26;9.33;;;3.97;;
21581;SDS011;10952;50.836;4.348;2023-07-28T00:41:51;5.23;;;3.70;;
21581;SDS011;10952;50.836;4.348;2023-07-28T00:44:17;5.50;;;3.77;;
21581;SDS011;10952;50.836;4.348;2023-07-28T00:46:43;8.13;;;3.87;;
21581;SDS011;10952;50.836;4.348;2023-07-28T00:49:09;7.97;;;5.17;;
21581;SDS011;10952;50.836;4.348;2023-07-28T00:51:35;6.33;;;4.30;;
21581;SDS011;10952;50.836;4.348;2023-07-28T00:54:02;9.87;;;4.23;;
21581;SDS011;10952;50.836;4.348;2023-07-28T00:56:30;6.17;;;4.30;;
21581;SDS011;10952;50.836;4.348;2023-07-28T00:58:56;9.50;;;4.17;;
21581;SDS011;10952;50.836;4.348;2023-07-28T01:01:22;6.53;;;4.60;;
21581;SDS011;10952;50.836;4.348;2023-07-28T01:03:48;6.57;;;4.33;;
21581;SDS011;10952;50.836;4.348;2023-07-28T01:09:04;7.67;;;5.03;;
21581;SDS011;10952;50.836;4.348;2023-07-28T01:11:34;9.43;;;5.03;;
21581;SDS011;10952;50.836;4.348;2023-07-28T01:14:00;8.37;;;4.87;;
21581;SDS011;10952;50.836;4.348;2023-07-28T01:16:26;7.33;;;4.90;;
21581;SDS011;10952;50.836;4.348;2023-07-28T01:18:51;7.40;;;4.70;;
21581;SDS011;10952;50.836;4.348;2023-07-28T01:21:20;7.40;;;4.47;;
21581;SDS011;10952;50.836;4.348;2023-07-28T01:24:15;8.20;;;4.33;;
21581;SDS011;10952;50.836;4.348;2023-07-28T01:26:45;9.33;;;5.63;;
21581;SDS011;10952;50.836;4.348;2023-07-28T01:29:11;12.40;;;5.67;;
21581;SDS011;10952;50.836;4.348;2023-07-28T01:31:40;9.27;;;6.37;;
21581;SDS011;10952;50.836;4.348;2023-07-28T01:34:05;10.27;;;6.17;;
21581;SDS011;10952;50.836;4.348;2023-07-28T01:36:31;8.87;;;5.50;;
21581;SDS011;10952;50.836;4.348;2023-07-28T01:38:57;21.27;;;14.13;;
21581;SDS011;10952;50.836;4.348;2023-07-28T01:41:22;16.83;;;6.53;;
21581;SDS011;10952;50.836;4.348;2023-07-28T01:43:48;8.80;;;5.40;;
21581;SDS011;10952;50.836;4.348;2023-07-28T01:46:14;16.47;;;6.77;;
21581;SDS011;10952;50.836;4.348;2023-07-28T01:48:39;13.10;;;6.93;;
21581;SDS011;10952;50.836;4.348;2023-07-28T01:51:05;12.03;;;6.60;;
21581;SDS011;10952;50.836;4.348;2023-07-28T01:53:31;10.87;;;6.67;;
21581;SDS011;10952;50.836;4.348;2023-07-28T01:55:56;11.77;;;6.93;;
21581;SDS011;10952;50.836;4.348;2023-07-28T01:58:22;11.13;;;6.47;;
21581;SDS011;10952;50.836;4.348;2023-07-28T02:00:48;15.73;;;6.77;;
21581;SDS011;10952;50.836;4.348;2023-07-28T02:03:13;11.60;;;7.20;;
21581;SDS011;10952;50.836;4.348;2023-07-28T02:05:39;13.57;;;7.43;;
21581;SDS011;10952;50.836;4.348;2023-07-28T02:08:05;13.17;;;7.53;;
21581;SDS011;10952;50.836;4.348;2023-07-28T02:10:30;18.77;;;7.47;;
21581;SDS011;10952;50.836;4.348;2023-07-28T02:12:56;15.73;;;8.50;;
21581;SDS011;10952;50.836;4.348;2023-07-28T02:15:22;15.93;;;9.00;;
21581;SDS011;10952;50.836;4.348;2023-07-28T02:17:47;14.73;;;7.90;;
21581;SDS011;10952;50.836;4.348;2023-07-28T02:20:14;14.07;;;7.27;;
21581;SDS011;10952;50.836;4.348;2023-07-28T02:22:40;13.67;;;7.93;;
21581;SDS011;10952;50.836;4.348;2023-07-28T02:25:09;16.20;;;6.87;;
21581;SDS011;10952;50.836;4.348;2023-07-28T02:27:36;17.17;;;8.20;;
21581;SDS011;10952;50.836;4.348;2023-07-28T02:30:02;15.83;;;7.63;;
21581;SDS011;10952;50.836;4.348;2023-07-28T02:32:29;13.43;;;7.33;;
21581;SDS011;10952;50.836;4.348;2023-07-28T02:34:55;12.50;;;7.40;;
21581;SDS011;10952;50.836;4.348;2023-07-28T02:37:20;16.67;;;7.77;;
21581;SDS011;10952;50.836;4.348;2023-07-28T02:39:46;14.83;;;7.70;;
21581;SDS011;10952;50.836;4.348;2023-07-28T02:42:12;14.37;;;7.90;;
21581;SDS011;10952;50.836;4.348;2023-07-28T02:44:38;13.90;;;7.47;;
21581;SDS011;10952;50.836;4.348;2023-07-28T02:47:04;14.40;;;8.27;;
21581;SDS011;10952;50.836;4.348;2023-07-28T02:49:30;16.70;;;7.93;;
21581;SDS011;10952;50.836;4.348;2023-07-28T02:51:56;16.70;;;7.13;;
21581;SDS011;10952;50.836;4.348;2023-07-28T02:54:21;13.67;;;7.17;;
21581;SDS011;10952;50.836;4.348;2023-07-28T02:56:49;16.07;;;7.20;;
21581;SDS011;10952;50.836;4.348;2023-07-28T02:59:14;13.97;;;7.33;;
21581;SDS011;10952;50.836;4.348;2023-07-28T03:01:40;12.23;;;7.10;;
21581;SDS011;10952;50.836;4.348;2023-07-28T03:04:06;13.60;;;6.87;;
21581;SDS011;10952;50.836;4.348;2023-07-28T03:06:31;17.47;;;7.30;;
21581;SDS011;10952;50.836;4.348;2023-07-28T03:09:00;13.03;;;7.47;;
21581;SDS011;10952;50.836;4.348;2023-07-28T03:11:26;11.27;;;7.00;;
21581;SDS011;10952;50.836;4.348;2023-07-28T03:13:51;11.40;;;6.83;;
21581;SDS011;10952;50.836;4.348;2023-07-28T03:16:17;11.53;;;7.13;;
21581;SDS011;10952;50.836;4.348;2023-07-28T03:18:42;14.73;;;7.43;;
21581;SDS011;10952;50.836;4.348;2023-07-28T03:21:08;11.63;;;7.20;;
21581;SDS011;10952;50.836;4.348;2023-07-28T03:23:34;14.17;;;7.00;;
21581;SDS011;10952;50.836;4.348;2023-07-28T03:26:00;10.87;;;7.40;;
21581;SDS011;10952;50.836;4.348;2023-07-28T03:28:26;11.43;;;7.03;;
21581;SDS011;10952;50.836;4.348;2023-07-28T03:30:51;11.97;;;7.33;;
21581;SDS011;10952;50.836;4.348;2023-07-28T03:33:17;10.27;;;6.60;;
21581;SDS011;10952;50.836;4.348;2023-07-28T03:35:42;11.77;;;5.87;;
21581;SDS011;10952;50.836;4.348;2023-07-28T03:38:08;14.77;;;7.00;;
21581;SDS011;10952;50.836;4.348;2023-07-28T03:40:34;8.83;;;6.43;;
21581;SDS011;10952;50.836;4.348;2023-07-28T03:43:00;8.57;;;6.10;;
21581;SDS011;10952;50.836;4.348;2023-07-28T03:45:26;10.77;;;6.07;;
21581;SDS011;10952;50.836;4.348;2023-07-28T03:47:52;8.63;;;6.63;;
21581;SDS011;10952;50.836;4.348;2023-07-28T03:50:18;11.87;;;5.80;;
21581;SDS011;10952;50.836;4.348;2023-07-28T03:52:43;9.83;;;5.90;;
21581;SDS011;10952;50.836;4.348;2023-07-28T03:55:09;10.30;;;6.00;;
21581;SDS011;10952;50.836;4.348;2023-07-28T03:57:35;8.17;;;6.00;;
21581;SDS011;10952;50.836;4.348;2023-07-28T04:00:00;12.80;;;6.77;;
21581;SDS011;10952;50.836;4.348;2023-07-28T04:02:26;11.57;;;6.33;;
21581;SDS011;10952;50.836;4.348;2023-07-28T04:04:54;10.77;;;6.03;;
21581;SDS011;10952;50.836;4.348;2023-07-28T04:07:21;7.67;;;5.70;;
21581;SDS011;10952;50.836;4.348;2023-07-28T04:09:47;8.77;;;5.90;;
21581;SDS011;10952;50.836;4.348;2023-07-28T04:12:12;6.77;;;5.37;;
21581;SDS011;10952;50.836;4.348;2023-07-28T04:14:38;8.37;;;5.30;;
21581;SDS011;10952;50.836;4.348;2023-07-28T04:17:03;9.50;;;5.30;;
21581;SDS011;10952;50.836;4.348;2023-07-28T04:19:29;8.43;;;5.37;;
21581;SDS011;10952;50.836;4.348;2023-07-28T04:21:56;9.67;;;5.37;;
21581;SDS011;10952;50.836;4.348;2023-07-28T04:24:22;12.53;;;6.13;;
21581;SDS011;10952;50.836;4.348;2023-07-28T04:26:47;8.33;;;4.40;;
21581;SDS011;10952;50.836;4.348;2023-07-28T04:29:16;10.90;;;4.90;;
21581;SDS011;10952;50.836;4.348;2023-07-28T04:31:42;7.63;;;4.40;;
21581;SDS011;10952;50.836;4.348;2023-07-28T04:34:07;10.90;;;5.47;;
21581;SDS011;10952;50.836;4.348;2023-07-28T04:36:33;8.37;;;4.23;;
21581;SDS011;10952;50.836;4.348;2023-07-28T04:38:59;8.03;;;4.70;;
21581;SDS011;10952;50.836;4.348;2023-07-28T04:41:25;8.07;;;4.07;;
21581;SDS011;10952;50.836;4.348;2023-07-28T04:43:50;4.67;;;3.50;;
21581;SDS011;10952;50.836;4.348;2023-07-28T04:46:16;5.97;;;3.33;;
21581;SDS011;10952;50.836;4.348;2023-07-28T04:48:42;9.90;;;3.90;;
21581;SDS011;10952;50.836;4.348;2023-07-28T04:51:07;8.20;;;3.30;;
21581;SDS011;10952;50.836;4.348;2023-07-28T04:53:33;8.83;;;3.37;;
21581;SDS011;10952;50.836;4.348;2023-07-28T04:55:59;4.67;;;3.30;;
21581;SDS011;10952;50.836;4.348;2023-07-28T04:58:25;7.43;;;3.37;;
21581;SDS011;10952;50.836;4.348;2023-07-28T05:00:50;4.83;;;2.83;;
21581;SDS011;10952;50.836;4.348;2023-07-28T05:03:16;6.47;;;3.30;;
21581;SDS011;10952;50.836;4.348;2023-07-28T05:05:44;10.27;;;4.37;;
21581;SDS011;10952;50.836;4.348;2023-07-28T05:08:10;6.97;;;3.03;;
21581;SDS011;10952;50.836;4.348;2023-07-28T05:10:36;8.83;;;3.83;;
21581;SDS011;10952;50.836;4.348;2023-07-28T05:13:02;10.27;;;4.00;;
21581;SDS011;10952;50.836;4.348;2023-07-28T05:15:30;12.23;;;3.47;;
21581;SDS011;10952;50.836;4.348;2023-07-28T05:17:56;7.43;;;4.10;;
21581;SDS011;10952;50.836;4.348;2023-07-28T05:20:21;5.43;;;3.37;;
21581;SDS011;10952;50.836;4.348;2023-07-28T05:22:47;7.10;;;4.10;;
21581;SDS011;10952;50.836;4.348;2023-07-28T05:25:13;6.93;;;4.03;;
21581;SDS011;10952;50.836;4.348;2023-07-28T05:27:39;6.07;;;3.57;;
21581;SDS011;10952;50.836;4.348;2023-07-28T05:30:05;6.40;;;3.27;;
21581;SDS011;10952;50.836;4.348;2023-07-28T05:32:31;4.00;;;2.63;;
21581;SDS011;10952;50.836;4.348;2023-07-28T05:34:57;4.93;;;3.23;;
21581;SDS011;10952;50.836;4.348;2023-07-28T05:37:23;6.43;;;2.43;;
21581;SDS011;10952;50.836;4.348;2023-07-28T05:39:48;4.07;;;2.87;;
21581;SDS011;10952;50.836;4.348;2023-07-28T05:42:14;5.93;;;2.53;;
21581;SDS011;10952;50.836;4.348;2023-07-28T05:44:40;7.83;;;2.80;;
21581;SDS011;10952;50.836;4.348;2023-07-28T05:47:05;7.07;;;2.90;;
21581;SDS011;10952;50.836;4.348;2023-07-28T05:49:31;6.40;;;3.00;;
21581;SDS011;10952;50.836;4.348;2023-07-28T05:51:57;4.67;;;2.77;;
21581;SDS011;10952;50.836;4.348;2023-07-28T05:54:23;4.23;;;3.00;;
21581;SDS011;10952;50.836;4.348;2023-07-28T05:56:48;8.77;;;3.30;;
21581;SDS011;10952;50.836;4.348;2023-07-28T05:59:14;6.57;;;4.03;;
21581;SDS011;10952;50.836;4.348;2023-07-28T06:01:40;7.37;;;2.57;;
21581;SDS011;10952;50.836;4.348;2023-07-28T06:04:06;4.57;;;2.50;;
21581;SDS011;10952;50.836;4.348;2023-07-28T06:06:31;6.70;;;3.23;;
21581;SDS011;10952;50.836;4.348;2023-07-28T06:08:57;8.93;;;3.57;;
21581;SDS011;10952;50.836;4.348;2023-07-28T06:11:24;4.67;;;3.33;;
21581;SDS011;10952;50.836;4.348;2023-07-28T06:13:49;5.87;;;3.10;;
21581;SDS011;10952;50.836;4.348;2023-07-28T06:16:15;5.87;;;2.90;;
21581;SDS011;10952;50.836;4.348;2023-07-28T06:18:41;7.00;;;3.57;;
21581;SDS011;10952;50.836;4.348;2023-07-28T06:21:06;5.60;;;3.27;;
21581;SDS011;10952;50.836;4.348;2023-07-28T06:23:32;10.83;;;4.27;;
21581;SDS011;10952;50.836;4.348;2023-07-28T06:25:58;4.83;;;3.10;;
21581;SDS011;10952;50.836;4.348;2023-07-28T06:28:24;4.50;;;2.70;;
21581;SDS011;10952;50.836;4.348;2023-07-28T06:30:56;4.87;;;2.40;;
21581;SDS011;10952;50.836;4.348;2023-07-28T06:33:27;5.67;;;3.03;;
21581;SDS011;10952;50.836;4.348;2023-07-28T06:35:53;6.20;;;3.27;;
21581;SDS011;10952;50.836;4.348;2023-07-28T06:38:19;4.00;;;2.77;;
21581;SDS011;10952;50.836;4.348;2023-07-28T06:40:45;3.33;;;2.40;;
21581;SDS011;10952;50.836;4.348;2023-07-28T06:43:10;2.33;;;1.70;;
21581;SDS011;10952;50.836;4.348;2023-07-28T06:45:36;3.27;;;2.00;;
21581;SDS011;10952;50.836;4.348;2023-07-28T06:48:02;3.10;;;1.60;;
21581;SDS011;10952;50.836;4.348;2023-07-28T06:50:28;3.90;;;1.90;;
21581;SDS011;10952;50.836;4.348;2023-07-28T06:52:53;3.27;;;2.30;;
21581;SDS011;10952;50.836;4.348;2023-07-28T06:55:20;4.93;;;1.90;;
21581;SDS011;10952;50.836;4.348;2023-07-28T06:57:47;2.17;;;1.43;;
21581;SDS011;10952;50.836;4.348;2023-07-28T07:00:13;2.73;;;1.20;;
21581;SDS011;10952;50.836;4.348;2023-07-28T07:02:39;3.63;;;1.97;;
21581;SDS011;10952;50.836;4.348;2023-07-28T07:05:05;1.60;;;0.97;;
21581;SDS011;10952;50.836;4.348;2023-07-28T07:07:31;1.43;;;0.87;;
21581;SDS011;10952;50.836;4.348;2023-07-28T07:09:57;1.67;;;0.97;;
21581;SDS011;10952;50.836;4.348;2023-07-28T07:12:23;1.47;;;1.00;;
21581;SDS011;10952;50.836;4.348;2023-07-28T07:14:49;2.10;;;1.17;;
21581;SDS011;10952;50.836;4.348;2023-07-28T07:17:14;2.73;;;1.10;;
21581;SDS011;10952;50.836;4.348;2023-07-28T07:19:40;3.73;;;1.43;;
21581;SDS011;10952;50.836;4.348;2023-07-28T07:22:06;2.90;;;1.10;;
21581;SDS011;10952;50.836;4.348;2023-07-28T07:24:31;2.63;;;0.90;;
21581;SDS011;10952;50.836;4.348;2023-07-28T07:26:57;2.43;;;1.10;;
21581;SDS011;10952;50.836;4.348;2023-07-28T07:29:23;3.20;;;1.13;;
21581;SDS011;10952;50.836;4.348;2023-07-28T07:31:49;2.13;;;0.73;;
21581;SDS011;10952;50.836;4.348;2023-07-28T07:34:19;3.07;;;0.90;;
21581;SDS011;10952;50.836;4.348;2023-07-28T07:36:45;14.40;;;4.60;;
21581;SDS011;10952;50.836;4.348;2023-07-28T07:39:11;1.43;;;0.93;;
21581;SDS011;10952;50.836;4.348;2023-07-28T07:41:36;5.23;;;3.07;;
21581;SDS011;10952;50.836;4.348;2023-07-28T07:44:02;1.57;;;1.17;;
21581;SDS011;10952;50.836;4.348;2023-07-28T07:46:28;1.50;;;0.90;;
21581;SDS011;10952;50.836;4.348;2023-07-28T07:48:53;3.03;;;1.30;;
21581;SDS011;10952;50.836;4.348;2023-07-28T07:51:19;3.10;;;1.67;;
21581;SDS011;10952;50.836;4.348;2023-07-28T07:53:44;3.07;;;1.40;;
21581;SDS011;10952;50.836;4.348;2023-07-28T07:56:10;2.23;;;1.67;;
21581;SDS011;10952;50.836;4.348;2023-07-28T07:58:36;3.53;;;1.97;;
21581;SDS011;10952;50.836;4.348;2023-07-28T08:01:02;8.57;;;2.03;;
21581;SDS011;10952;50.836;4.348;2023-07-28T08:03:28;2.90;;;1.83;;
21581;SDS011;10952;50.836;4.348;2023-07-28T08:05:53;3.37;;;1.80;;
21581;SDS011;10952;50.836;4.348;2023-07-28T08:08:19;4.00;;;2.07;;
21581;SDS011;10952;50.836;4.348;2023-07-28T08:10:48;4.90;;;2.40;;
21581;SDS011;10952;50.836;4.348;2023-07-28T08:13:15;2.43;;;1.70;;
21581;SDS011;10952;50.836;4.348;2023-07-28T08:15:42;4.30;;;2.00;;
21581;SDS011;10952;50.836;4.348;2023-07-28T08:18:08;5.33;;;2.80;;
21581;SDS011;10952;50.836;4.348;2023-07-28T08:20:34;3.57;;;1.57;;
21581;SDS011;10952;50.836;4.348;2023-07-28T08:23:00;3.93;;;2.20;;
21581;SDS011;10952;50.836;4.348;2023-07-28T08:25:25;3.60;;;1.73;;
21581;SDS011;10952;50.836;4.348;2023-07-28T08:27:51;2.97;;;1.60;;
21581;SDS011;10952;50.836;4.348;2023-07-28T08:30:17;2.30;;;1.83;;
21581;SDS011;10952;50.836;4.348;2023-07-28T08:32:42;5.10;;;1.63;;
21581;SDS011;10952;50.836;4.348;2023-07-28T08:35:08;2.77;;;1.63;;
21581;SDS011;10952;50.836;4.348;2023-07-28T08:37:34;3.37;;;1.70;;
21581;SDS011;10952;50.836;4.348;2023-07-28T08:40:00;2.03;;;1.20;;
21581;SDS011;10952;50.836;4.348;2023-07-28T08:42:28;3.07;;;1.23;;
21581;SDS011;10952;50.836;4.348;2023-07-28T08:44:55;2.20;;;1.40;;
21581;SDS011;10952;50.836;4.348;2023-07-28T08:47:20;3.30;;;1.87;;
21581;SDS011;10952;50.836;4.348;2023-07-28T08:49:46;2.83;;;1.43;;
21581;SDS011;10952;50.836;4.348;2023-07-28T08:52:15;5.07;;;1.67;;
21581;SDS011;10952;50.836;4.348;2023-07-28T08:54:41;2.87;;;1.87;;
21581;SDS011;10952;50.836;4.348;2023-07-28T08:57:08;3.27;;;1.90;;
21581;SDS011;10952;50.836;4.348;2023-07-28T08:59:35;2.27;;;1.40;;
21581;SDS011;10952;50.836;4.348;2023-07-28T09:02:01;2.83;;;1.43;;
21581;SDS011;10952;50.836;4.348;2023-07-28T09:04:29;2.17;;;1.20;;
21581;SDS011;10952;50.836;4.348;2023-07-28T09:06:55;4.87;;;2.23;;
21581;SDS011;10952;50.836;4.348;2023-07-28T09:09:21;2.30;;;1.57;;
21581;SDS011;10952;50.836;4.348;2023-07-28T09:11:48;2.70;;;1.27;;
21581;SDS011;10952;50.836;4.348;2023-07-28T09:14:17;2.80;;;1.20;;
21581;SDS011;10952;50.836;4.348;2023-07-28T09:16:44;3.87;;;1.20;;
21581;SDS011;10952;50.836;4.348;2023-07-28T09:19:13;2.27;;;1.20;;
21581;SDS011;10952;50.836;4.348;2023-07-28T09:21:39;2.77;;;1.33;;
21581;SDS011;10952;50.836;4.348;2023-07-28T09:24:08;2.23;;;1.30;;
21581;SDS011;10952;50.836;4.348;2023-07-28T09:26:39;5.20;;;1.20;;
21581;SDS011;10952;50.836;4.348;2023-07-28T09:29:15;3.47;;;1.60;;
21581;SDS011;10952;50.836;4.348;2023-07-28T09:31:46;2.83;;;1.30;;
21581;SDS011;10952;50.836;4.348;2023-07-28T09:34:13;2.73;;;1.37;;
21581;SDS011;10952;50.836;4.348;2023-07-28T09:36:58;3.60;;;1.87;;
21581;SDS011;10952;50.836;4.348;2023-07-28T09:39:25;3.70;;;1.60;;
21581;SDS011;10952;50.836;4.348;2023-07-28T09:41:51;2.83;;;1.30;;
21581;SDS011;10952;50.836;4.348;2023-07-28T09:44:17;3.40;;;1.40;;
21581;SDS011;10952;50.836;4.348;2023-07-28T09:46:50;3.67;;;1.83;;
21581;SDS011;10952;50.836;4.348;2023-07-28T09:49:20;5.93;;;3.23;;
21581;SDS011;10952;50.836;4.348;2023-07-28T09:51:49;6.23;;;3.13;;
21581;SDS011;10952;50.836;4.348;2023-07-28T09:54:20;4.00;;;2.50;;
21581;SDS011;10952;50.836;4.348;2023-07-28T09:56:53;5.10;;;2.70;;
21581;SDS011;10952;50.836;4.348;2023-07-28T09:59:31;3.93;;;2.67;;
21581;SDS011;10952;50.836;4.348;2023-07-28T10:02:00;4.17;;;2.30;;
21581;SDS011;10952;50.836;4.348;2023-07-28T10:04:27;5.20;;;2.90;;
21581;SDS011;10952;50.836;4.348;2023-07-28T10:06:54;5.90;;;2.70;;
21581;SDS011;10952;50.836;4.348;2023-07-28T10:09:22;4.10;;;2.70;;
21581;SDS011;10952;50.836;4.348;2023-07-28T10:11:52;6.13;;;3.40;;
21581;SDS011;10952;50.836;4.348;2023-07-28T10:16:55;6.87;;;3.37;;
21581;SDS011;10952;50.836;4.348;2023-07-28T10:19:24;7.85;;;3.92;;
21581;SDS011;10952;50.836;4.348;2023-07-28T10:22:26;6.70;;;3.97;;
21581;SDS011;10952;50.836;4.348;2023-07-28T10:24:51;6.43;;;4.00;;
21581;SDS011;10952;50.836;4.348;2023-07-28T10:29:59;6.32;;;4.20;;
21581;SDS011;10952;50.836;4.348;2023-07-28T10:32:29;5.32;;;3.40;;
21581;SDS011;10952;50.836;4.348;2023-07-28T10:35:07;4.95;;;3.45;;
21581;SDS011;10952;50.836;4.348;2023-07-28T10:37:34;6.13;;;4.18;;
21581;SDS011;10952;50.836;4.348;2023-07-28T10:43:00;7.45;;;4.20;;
21581;SDS011;10952;50.836;4.348;2023-07-28T10:45:27;5.90;;;4.05;;
21581;SDS011;10952;50.836;4.348;2023-07-28T10:47:55;5.97;;;3.55;;
21581;SDS011;10952;50.836;4.348;2023-07-28T10:50:22;7.38;;;4.22;;
21581;SDS011;10952;50.836;4.348;2023-07-28T10:52:48;5.72;;;3.60;;
21581;SDS011;10952;50.836;4.348;2023-07-28T10:55:15;5.53;;;4.03;;
21581;SDS011;10952;50.836;4.348;2023-07-28T10:57:42;9.02;;;5.60;;
21581;SDS011;10952;50.836;4.348;2023-07-28T11:00:09;8.48;;;5.10;;
21581;SDS011;10952;50.836;4.348;2023-07-28T11:05:29;6.22;;;4.65;;
21581;SDS011;10952;50.836;4.348;2023-07-28T11:07:56;5.47;;;4.18;;
21581;SDS011;10952;50.836;4.348;2023-07-28T11:10:23;5.15;;;4.50;;
21581;SDS011;10952;50.836;4.348;2023-07-28T11:12:50;6.22;;;3.92;;
21581;SDS011;10952;50.836;4.348;2023-07-28T11:15:17;5.18;;;3.78;;
21581;SDS011;10952;50.836;4.348;2023-07-28T11:17:45;11.02;;;4.55;;
21581;SDS011;10952;50.836;4.348;2023-07-28T11:20:22;5.78;;;4.55;;
21581;SDS011;10952;50.836;4.348;2023-07-28T11:22:53;4.40;;;3.50;;
21581;SDS011;10952;50.836;4.348;2023-07-28T11:25:19;5.13;;;3.20;;
21581;SDS011;10952;50.836;4.348;2023-07-28T11:27:46;4.47;;;3.53;;
21581;SDS011;10952;50.836;4.348;2023-07-28T11:30:13;7.82;;;3.13;;
21581;SDS011;10952;50.836;4.348;2023-07-28T11:32:42;3.20;;;2.50;;
21581;SDS011;10952;50.836;4.348;2023-07-28T11:35:09;6.63;;;3.42;;
21581;SDS011;10952;50.836;4.348;2023-07-28T11:37:36;5.18;;;1.92;;
21581;SDS011;10952;50.836;4.348;2023-07-28T11:40:03;3.80;;;2.20;;
21581;SDS011;10952;50.836;4.348;2023-07-28T11:45:31;7.13;;;3.00;;
21581;SDS011;10952;50.836;4.348;2023-07-28T11:47:57;4.35;;;2.70;;
21581;SDS011;10952;50.836;4.348;2023-07-28T11:50:29;4.20;;;3.05;;
21581;SDS011;10952;50.836;4.348;2023-07-28T11:52:59;4.20;;;2.70;;
21581;SDS011;10952;50.836;4.348;2023-07-28T11:55:25;10.18;;;2.78;;
21581;SDS011;10952;50.836;4.348;2023-07-28T11:57:52;4.43;;;2.88;;
21581;SDS011;10952;50.836;4.348;2023-07-28T12:00:18;5.30;;;2.97;;
21581;SDS011;10952;50.836;4.348;2023-07-28T12:02:51;5.30;;;3.05;;
21581;SDS011;10952;50.836;4.348;2023-07-28T12:05:29;4.47;;;2.65;;
21581;SDS011;10952;50.836;4.348;2023-07-28T12:07:55;3.33;;;2.08;;
21581;SDS011;10952;50.836;4.348;2023-07-28T12:10:20;5.90;;;2.47;;
21581;SDS011;10952;50.836;4.348;2023-07-28T12:12:46;3.53;;;2.10;;
21581;SDS011;10952;50.836;4.348;2023-07-28T12:15:28;5.00;;;1.92;;
21581;SDS011;10952;50.836;4.348;2023-07-28T12:18:06;3.47;;;1.60;;
21581;SDS011;10952;50.836;4.348;2023-07-28T12:20:37;3.95;;;2.13;;
21581;SDS011;10952;50.836;4.348;2023-07-28T12:23:03;3.15;;;1.63;;
21581;SDS011;10952;50.836;4.348;2023-07-28T12:25:30;4.20;;;1.40;;
21581;SDS011;10952;50.836;4.348;2023-07-28T12:27:56;3.05;;;1.80;;
21581;SDS011;10952;50.836;4.348;2023-07-28T12:30:22;3.92;;;1.70;;
21581;SDS011;10952;50.836;4.348;2023-07-28T12:32:48;3.78;;;1.60;;
21581;SDS011;10952;50.836;4.348;2023-07-28T12:35:14;2.25;;;1.50;;
21581;SDS011;10952;50.836;4.348;2023-07-28T12:37:40;5.55;;;1.95;;
21581;SDS011;10952;50.836;4.348;2023-07-28T12:40:06;5.07;;;3.15;;
21581;SDS011;10952;50.836;4.348;2023-07-28T12:42:33;4.15;;;1.60;;
21581;SDS011;10952;50.836;4.348;2023-07-28T12:44:59;4.40;;;1.42;;
21581;SDS011;10952;50.836;4.348;2023-07-28T12:47:24;5.35;;;3.08;;
21581;SDS011;10952;50.836;4.348;2023-07-28T12:49:50;2.63;;;1.80;;
21581;SDS011;10952;50.836;4.348;2023-07-28T12:52:16;4.40;;;1.60;;
21581;SDS011;10952;50.836;4.348;2023-07-28T12:54:41;5.05;;;1.45;;
21581;SDS011;10952;50.836;4.348;2023-07-28T12:57:07;2.67;;;1.73;;
21581;SDS011;10952;50.836;4.348;2023-07-28T12:59:35;3.63;;;1.80;;
21581;SDS011;10952;50.836;4.348;2023-07-28T13:02:01;3.00;;;1.65;;
21581;SDS011;10952;50.836;4.348;2023-07-28T13:04:27;2.55;;;1.42;;
21581;SDS011;10952;50.836;4.348;2023-07-28T13:06:53;2.75;;;1.67;;
21581;SDS011;10952;50.836;4.348;2023-07-28T13:09:19;2.33;;;1.30;;
21581;SDS011;10952;50.836;4.348;2023-07-28T13:11:44;4.35;;;1.55;;
21581;SDS011;10952;50.836;4.348;2023-07-28T13:14:10;4.20;;;1.60;;
21581;SDS011;10952;50.836;4.348;2023-07-28T13:16:35;4.10;;;1.70;;
21581;SDS011;10952;50.836;4.348;2023-07-28T13:19:03;5.00;;;1.70;;
21581;SDS011;10952;50.836;4.348;2023-07-28T13:21:29;1.90;;;1.30;;
21581;SDS011;10952;50.836;4.348;2023-07-28T13:23:55;2.33;;;1.60;;
21581;SDS011;10952;50.836;4.348;2023-07-28T13:26:20;4.63;;;1.77;;
21581;SDS011;10952;50.836;4.348;2023-07-28T13:28:46;3.50;;;1.40;;
21581;SDS011;10952;50.836;4.348;2023-07-28T13:31:12;3.10;;;1.20;;
21581;SDS011;10952;50.836;4.348;2023-07-28T13:33:40;2.97;;;1.40;;
21581;SDS011;10952;50.836;4.348;2023-07-28T13:36:05;3.20;;;1.25;;
21581;SDS011;10952;50.836;4.348;2023-07-28T13:38:33;3.88;;;1.73;;
21581;SDS011;10952;50.836;4.348;2023-07-28T13:40:59;3.92;;;1.38;;
21581;SDS011;10952;50.836;4.348;2023-07-28T13:43:25;3.75;;;1.98;;
21581;SDS011;10952;50.836;4.348;2023-07-28T13:45:51;3.10;;;1.40;;
21581;SDS011;10952;50.836;4.348;2023-07-28T13:48:17;3.00;;;1.50;;
21581;SDS011;10952;50.836;4.348;2023-07-28T13:50:42;2.72;;;1.23;;
21581;SDS011;10952;50.836;4.348;2023-07-28T13:53:09;2.72;;;1.73;;
21581;SDS011;10952;50.836;4.348;2023-07-28T13:55:35;3.78;;;1.35;;
21581;SDS011;10952;50.836;4.348;2023-07-28T13:58:01;3.35;;;1.63;;
21581;SDS011;10952;50.836;4.348;2023-07-28T14:00:26;4.35;;;1.55;;
21581;SDS011;10952;50.836;4.348;2023-07-28T14:02:52;4.40;;;1.50;;
21581;SDS011;10952;50.836;4.348;2023-07-28T14:05:17;7.28;;;4.10;;
21581;SDS011;10952;50.836;4.348;2023-07-28T14:07:44;5.53;;;2.83;;
21581;SDS011;10952;50.836;4.348;2023-07-28T14:10:10;5.88;;;2.17;;
21581;SDS011;10952;50.836;4.348;2023-07-28T14:12:35;7.80;;;2.13;;
21581;SDS011;10952;50.836;4.348;2023-07-28T14:15:02;4.47;;;1.30;;
21581;SDS011;10952;50.836;4.348;2023-07-28T14:17:28;2.88;;;1.80;;
21581;SDS011;10952;50.836;4.348;2023-07-28T14:19:54;3.38;;;1.48;;
21581;SDS011;10952;50.836;4.348;2023-07-28T14:22:19;5.30;;;1.75;;
21581;SDS011;10952;50.836;4.348;2023-07-28T14:24:45;3.13;;;1.48;;
21581;SDS011;10952;50.836;4.348;2023-07-28T14:27:10;2.70;;;1.25;;
21581;SDS011;10952;50.836;4.348;2023-07-28T14:29:36;3.78;;;1.50;;
21581;SDS011;10952;50.836;4.348;2023-07-28T14:32:02;3.08;;;1.40;;
21581;SDS011;10952;50.836;4.348;2023-07-28T14:34:27;4.05;;;1.20;;
21581;SDS011;10952;50.836;4.348;2023-07-28T14:36:53;3.33;;;1.30;;
21581;SDS011;10952;50.836;4.348;2023-07-28T14:39:19;5.35;;;1.50;;
21581;SDS011;10952;50.836;4.348;2023-07-28T14:41:45;4.25;;;1.20;;
21581;SDS011;10952;50.836;4.348;2023-07-28T14:44:10;5.03;;;1.40;;
21581;SDS011;10952;50.836;4.348;2023-07-28T14:46:36;3.45;;;2.05;;
21581;SDS011;10952;50.836;4.348;2023-07-28T14:49:02;3.30;;;1.77;;
21581;SDS011;10952;50.836;4.348;2023-07-28T14:51:27;3.90;;;1.65;;
21581;SDS011;10952;50.836;4.348;2023-07-28T14:53:53;3.75;;;1.90;;
21581;SDS011;10952;50.836;4.348;2023-07-28T14:56:20;2.67;;;1.40;;
21581;SDS011;10952;50.836;4.348;2023-07-28T14:58:49;3.00;;;1.45;;